Terminal Aerodrome Forecast
Issued by NWS

Home | Current Version | Previous Version | Text Only | Print | Product List | Glossary On
Versions: 1 2 3 4 5 6 7 8 9 10 11 12 13 14 15 16 17 18 19 20 21 22 23 24 25 26
000
FTUS43 KDLH 190300 AAA
TAFBRD
TAF AMD
KBRD 190334Z 1904/1924 19008KT P6SM OVC070
      TEMPO 1904/1905 OVC010
     FM191000 16003KT 6SM BR OVC011
     FM191800 17006KT P6SM OVC015=

USA.gov is the U.S. government's official web portal to all federal, state and local government web resources and services.